createdAt,value
2022-08-28T00:02:49.163Z,101548.97
2022-08-28T00:07:52.888Z,101498.31
2022-08-28T00:13:00.496Z,101550.75
2022-08-28T00:18:05.053Z,101503.53
2022-08-28T00:23:08.039Z,101558.47
2022-08-28T00:28:23.466Z,101532.13
2022-08-28T00:33:29.862Z,101565.72
2022-08-28T00:38:32.686Z,101557.06
2022-08-28T00:43:39.972Z,101531.47
2022-08-28T00:48:43.176Z,101517.25
2022-08-28T00:53:46.258Z,101570.19
2022-08-28T00:58:54.507Z,101561.94
2022-08-28T01:03:57.214Z,101574.25
2022-08-28T01:09:05.396Z,101438.25
2022-08-28T01:14:10.725Z,101576.38
2022-08-28T01:19:19.244Z,101577.75
2022-08-28T01:24:23.661Z,101499.75
2022-08-28T01:29:28.537Z,101575.13
2022-08-28T01:34:31.872Z,101587.00
2022-08-28T01:39:35.911Z,101586.84
2022-08-28T01:44:39.896Z,101599.66
2022-08-28T01:49:49.170Z,101543.31
2022-08-28T01:54:53.575Z,101498.72
2022-08-28T01:59:56.376Z,101580.41
2022-08-28T02:04:58.987Z,101592.88
2022-08-28T02:10:03.090Z,101559.31
2022-08-28T02:15:07.383Z,101573.72
2022-08-28T02:20:12.315Z,101585.75
2022-08-28T02:25:19.976Z,101588.34
2022-08-28T02:30:23.500Z,101557.78
2022-08-28T02:35:26.144Z,101582.94
2022-08-28T02:40:31.591Z,101595.84
2022-08-28T02:45:34.734Z,101563.25
2022-08-28T02:50:37.882Z,101598.88
2022-08-28T02:55:42.872Z,101599.97
2022-08-28T03:00:45.552Z,101607.75
2022-08-28T03:05:50.196Z,101585.72
2022-08-28T03:10:54.600Z,101583.72
2022-08-28T03:15:58.631Z,101597.03
2022-08-28T03:21:01.591Z,101600.59
2022-08-28T03:26:08.863Z,101594.31
2022-08-28T03:31:17.766Z,101550.47
2022-08-28T03:36:24.715Z,101558.84
2022-08-28T03:41:30.364Z,101601.03
2022-08-28T03:46:35.087Z,101597.75
2022-08-28T03:51:38.316Z,101619.03
2022-08-28T03:56:43.353Z,101612.09
2022-08-28T04:01:46.236Z,101617.47
2022-08-28T04:06:48.911Z,101607.22
2022-08-28T04:11:54.274Z,101633.44
2022-08-28T04:17:03.200Z,101629.47
2022-08-28T04:22:06.011Z,101630.38
2022-08-28T04:27:11.241Z,101628.31
2022-08-28T04:32:14.245Z,101614.66
2022-08-28T04:37:19.917Z,101632.94
2022-08-28T04:42:26.783Z,101627.19
2022-08-28T04:47:30.978Z,101639.63
2022-08-28T04:52:33.733Z,101643.28
2022-08-28T04:57:37.848Z,101599.81
2022-08-28T05:02:40.564Z,101662.47
2022-08-28T05:07:43.302Z,101665.34
2022-08-28T05:12:50.562Z,101663.06
2022-08-28T05:17:59.226Z,101653.69
2022-08-28T05:23:04.784Z,101636.66
2022-08-28T05:28:11.981Z,101665.38
2022-08-28T05:33:16.552Z,101677.81
2022-08-28T05:38:19.267Z,101683.88
2022-08-28T05:43:23.275Z,101680.81
2022-08-28T05:48:25.940Z,101647.03
2022-08-28T05:53:34.668Z,101667.34
2022-08-28T05:58:40.321Z,101691.63
2022-08-28T06:03:47.974Z,101645.00
2022-08-28T06:08:56.229Z,101702.19
2022-08-28T06:14:06.455Z,101700.34
2022-08-28T06:19:11.069Z,101684.88
2022-08-28T06:24:16.945Z,101704.50
2022-08-28T06:29:23.434Z,101658.56
2022-08-28T06:34:28.003Z,101711.38
2022-08-28T06:39:30.818Z,101670.16
2022-08-28T06:44:34.943Z,101714.63
2022-08-28T06:49:37.944Z,101679.47
2022-08-28T06:54:40.627Z,101734.16
2022-08-28T07:00:01.039Z,101725.19
2022-08-28T07:05:03.746Z,101729.84
2022-08-28T07:10:07.268Z,101733.00
2022-08-28T07:15:12.273Z,101731.72
2022-08-28T07:20:22.828Z,101743.34
2022-08-28T07:25:27.331Z,101676.97
2022-08-28T07:30:31.619Z,101750.34
2022-08-28T07:35:35.068Z,101742.41
2022-08-28T07:40:37.805Z,101741.69
2022-08-28T07:45:42.350Z,101749.75
2022-08-28T07:50:45.048Z,101721.63
2022-08-28T07:55:55.068Z,101636.16
2022-08-28T08:01:01.277Z,101723.84
2022-08-28T08:06:05.999Z,101701.03
2022-08-28T08:11:11.319Z,101772.84
2022-08-28T08:16:23.225Z,101772.16
2022-08-28T08:21:30.066Z,101769.03
2022-08-28T08:26:33.399Z,101679.81
2022-08-28T08:31:37.536Z,101766.13
2022-08-28T08:36:47.116Z,101712.00
2022-08-28T08:41:52.648Z,101755.19
2022-08-28T08:47:13.783Z,101772.59
2022-08-28T08:52:37.174Z,101774.75
2022-08-28T08:57:40.083Z,101778.50
2022-08-28T09:02:54.340Z,101720.03
2022-08-28T09:08:02.604Z,101775.88
2022-08-28T09:13:18.873Z,101775.31
2022-08-28T09:18:29.436Z,101763.34
2022-08-28T09:23:32.143Z,101770.84
2022-08-28T09:28:40.663Z,101766.88
2022-08-28T09:33:48.713Z,101741.09
2022-08-28T09:39:06.615Z,101775.03
2022-08-28T09:44:18.942Z,101772.50
2022-08-28T09:49:29.416Z,101766.09
2022-08-28T09:54:39.084Z,101772.75
2022-08-28T09:59:43.089Z,101778.56
2022-08-28T10:04:58.831Z,101775.25
2022-08-28T10:10:17.513Z,101744.97
2022-08-28T10:15:30.572Z,101774.38
2022-08-28T10:20:47.899Z,101769.63
2022-08-28T10:25:59.976Z,101764.81
2022-08-28T10:31:15.158Z,101772.41
2022-08-28T10:36:33.530Z,101744.22
2022-08-28T10:41:44.484Z,101711.59
2022-08-28T10:46:54.025Z,101716.38
2022-08-28T10:52:12.703Z,101769.16
2022-08-28T10:57:29.262Z,101757.69
2022-08-28T11:02:32.872Z,101757.56
2022-08-28T11:07:42.540Z,101765.22
2022-08-28T11:12:45.397Z,101732.69
2022-08-28T11:17:48.697Z,101742.19
2022-08-28T11:22:57.138Z,101770.63
2022-08-28T11:28:27.137Z,101768.69
2022-08-28T11:33:39.728Z,101771.41
2022-08-28T11:39:06.554Z,101768.81
2022-08-28T11:44:43.562Z,101768.47
2022-08-28T11:49:48.807Z,101602.38
2022-08-28T11:55:05.889Z,101702.31
2022-08-28T12:00:11.948Z,101773.72
2022-08-28T12:05:45.256Z,101764.72
2022-08-28T12:10:59.879Z,101713.97
2022-08-28T12:16:07.758Z,101740.22
2022-08-28T12:21:17.430Z,101728.97
2022-08-28T12:26:28.392Z,101763.09
2022-08-28T12:32:06.525Z,101740.56
2022-08-28T12:37:26.734Z,101631.22
2022-08-28T12:42:35.642Z,101742.47
2022-08-28T12:47:40.018Z,101750.06
2022-08-28T12:52:51.603Z,101741.28
2022-08-28T12:57:56.742Z,101649.41
2022-08-28T13:03:01.153Z,101740.56
2022-08-28T13:08:07.855Z,101742.44
2022-08-28T13:13:20.406Z,101731.97
2022-08-28T13:18:51.987Z,101690.50
2022-08-28T13:23:58.131Z,101704.22
2022-08-28T13:29:24.590Z,101720.50
2022-08-28T13:34:29.813Z,101731.53
2022-08-28T13:39:37.622Z,101719.19
2022-08-28T13:44:48.893Z,101727.53
2022-08-28T13:49:54.808Z,101647.66
2022-08-28T13:54:57.481Z,101712.66
2022-08-28T14:00:03.800Z,101674.09
2022-08-28T14:05:10.469Z,101694.94
2022-08-28T14:10:16.476Z,101707.00
2022-08-28T14:15:21.718Z,101464.91
2022-08-28T14:20:25.582Z,101715.41
2022-08-28T14:25:28.465Z,101653.34
2022-08-28T14:30:32.893Z,101683.94
2022-08-28T14:35:41.239Z,101693.47
2022-08-28T14:40:47.484Z,101636.63
2022-08-28T14:45:51.523Z,101679.13
2022-08-28T14:50:55.233Z,101672.91
2022-08-28T14:55:58.751Z,101681.34
2022-08-28T15:01:03.989Z,101666.78
2022-08-28T15:06:11.787Z,101570.09
2022-08-28T15:11:19.241Z,101288.81
2022-08-28T15:16:29.849Z,101674.78
2022-08-28T15:21:35.751Z,101607.34
2022-08-28T15:26:40.090Z,101676.47
2022-08-28T15:31:47.962Z,101656.25
2022-08-28T15:36:55.796Z,101677.81
2022-08-28T15:42:02.161Z,101621.00
2022-08-28T15:47:13.727Z,101635.34
2022-08-28T15:52:19.159Z,101608.69
2022-08-28T15:57:22.088Z,101665.41
2022-08-28T16:02:28.371Z,101607.47
2022-08-28T16:07:31.188Z,101651.47
2022-08-28T16:12:34.171Z,101661.06
2022-08-28T16:17:38.785Z,101658.78
2022-08-28T16:22:41.478Z,101666.59
2022-08-28T16:27:45.509Z,101670.59
2022-08-28T16:32:50.003Z,101670.50
2022-08-28T16:37:53.705Z,101673.38
2022-08-28T16:42:57.044Z,101666.56
2022-08-28T16:48:01.862Z,101620.16
2022-08-28T16:53:06.998Z,101638.91
2022-08-28T16:58:15.042Z,101609.50
2022-08-28T17:03:25.708Z,101671.50
2022-08-28T17:08:29.238Z,101663.25
2022-08-28T17:13:32.140Z,101653.47
2022-08-28T17:18:37.201Z,101673.75
2022-08-28T17:23:41.371Z,101612.81
2022-08-28T17:28:48.027Z,101665.81
2022-08-28T17:34:25.772Z,101603.41
2022-08-28T17:39:34.353Z,101591.28
2022-08-28T17:44:37.056Z,101685.44
2022-08-28T17:49:42.212Z,101688.50
2022-08-28T17:54:44.936Z,101678.16
2022-08-28T17:59:52.303Z,101604.75
2022-08-28T18:04:56.572Z,101694.75
2022-08-28T18:10:01.724Z,101696.91
2022-08-28T18:15:12.243Z,101695.66
2022-08-28T18:20:20.325Z,101675.31
2022-08-28T18:25:42.221Z,101704.22
2022-08-28T18:30:50.957Z,101709.03
2022-08-28T18:35:59.802Z,101641.72
2022-08-28T18:41:04.948Z,101559.00
2022-08-28T18:46:12.957Z,101735.44
2022-08-28T18:51:21.260Z,101622.50
2022-08-28T18:56:25.025Z,101734.00
2022-08-28T19:01:32.774Z,101739.94
2022-08-28T19:06:38.497Z,101740.50
2022-08-28T19:11:41.597Z,101748.19
2022-08-28T19:16:47.146Z,101750.13
2022-08-28T19:21:51.785Z,101668.44
2022-08-28T19:26:56.041Z,101762.00
2022-08-28T19:31:58.886Z,101765.94
2022-08-28T19:37:03.570Z,101777.84
2022-08-28T19:42:08.020Z,101765.38
2022-08-28T19:47:10.859Z,101783.88
2022-08-28T19:52:15.167Z,101787.97
2022-08-28T19:57:17.898Z,101796.00
2022-08-28T20:02:23.600Z,101753.22
2022-08-28T20:07:27.812Z,101756.78
2022-08-28T20:12:30.894Z,101740.41
2022-08-28T20:17:33.995Z,101785.09
2022-08-28T20:22:49.412Z,101764.66
2022-08-28T20:28:01.362Z,101718.13
2022-08-28T20:33:04.708Z,101814.91
2022-08-28T20:38:11.091Z,101665.00
2022-08-28T20:43:13.874Z,101759.81
2022-08-28T20:48:16.542Z,101836.06
2022-08-28T20:53:23.282Z,101808.72
2022-08-28T20:58:39.670Z,101847.50
2022-08-28T21:03:42.334Z,101847.94
2022-08-28T21:08:50.090Z,101848.56
2022-08-28T21:13:52.833Z,101846.63
2022-08-28T21:19:14.642Z,101852.16
2022-08-28T21:24:19.900Z,101867.88
2022-08-28T21:29:23.884Z,101856.34
2022-08-28T21:34:59.711Z,101758.91
2022-08-28T21:40:11.623Z,101866.31
2022-08-28T21:45:14.935Z,101874.75
2022-08-28T21:50:17.775Z,101850.06
2022-08-28T21:55:29.299Z,101828.34
2022-08-28T22:00:31.997Z,101872.88
2022-08-28T22:05:34.665Z,101875.47
2022-08-28T22:10:40.634Z,101869.97
2022-08-28T22:15:45.255Z,101871.03
2022-08-28T22:21:06.135Z,101862.00
2022-08-28T22:26:12.236Z,101878.63
2022-08-28T22:31:15.049Z,101854.44
2022-08-28T22:36:22.190Z,101816.59
2022-08-28T22:41:26.412Z,101877.06
2022-08-28T22:46:29.219Z,101814.69
2022-08-28T22:51:34.420Z,101876.44
2022-08-28T22:56:38.499Z,101808.94
2022-08-28T23:01:45.670Z,101865.56
2022-08-28T23:06:48.399Z,101826.94
2022-08-28T23:11:52.484Z,101875.69
2022-08-28T23:16:55.915Z,101835.59
2022-08-28T23:21:58.895Z,101878.94
2022-08-28T23:27:25.555Z,101854.47
2022-08-28T23:32:26.163Z,101858.28
2022-08-28T23:37:28.919Z,101854.47
2022-08-28T23:42:32.959Z,101868.72
2022-08-28T23:47:40.417Z,101857.50
2022-08-28T23:52:44.262Z,101860.22
2022-08-28T23:57:52.254Z,101862.84
